createdAt,value
2022-12-25T00:01:26.674Z,4.22
2022-12-25T00:03:54.498Z,3.85
2022-12-25T00:06:22.031Z,3.92
2022-12-25T00:08:50.869Z,4.07
2022-12-25T00:11:20.651Z,3.58
2022-12-25T00:13:48.927Z,3.67
2022-12-25T00:16:18.652Z,3.80
2022-12-25T00:18:46.667Z,3.80
2022-12-25T00:21:15.385Z,3.78
2022-12-25T00:23:43.346Z,4.13
2022-12-25T00:26:14.212Z,3.83
2022-12-25T00:28:41.681Z,4.13
2022-12-25T00:31:11.264Z,3.97
2022-12-25T00:33:40.722Z,3.45
2022-12-25T00:36:09.559Z,3.85
2022-12-25T00:38:39.110Z,3.92
2022-12-25T00:41:07.887Z,3.40
2022-12-25T00:43:37.100Z,3.85
2022-12-25T00:46:06.802Z,3.10
2022-12-25T00:48:35.397Z,3.67
2022-12-25T00:51:05.252Z,3.22
2022-12-25T00:53:34.324Z,3.30
2022-12-25T00:56:04.672Z,3.45
2022-12-25T00:58:33.670Z,3.45
2022-12-25T01:01:03.687Z,3.17
2022-12-25T01:03:31.654Z,3.28
2022-12-25T01:06:01.228Z,3.10
2022-12-25T01:08:30.957Z,3.03
2022-12-25T01:10:59.473Z,3.70
2022-12-25T01:13:27.085Z,3.33
2022-12-25T01:15:54.829Z,3.38
2022-12-25T01:18:25.375Z,3.88
2022-12-25T01:20:52.907Z,3.35
2022-12-25T01:23:20.388Z,3.40
2022-12-25T01:25:47.893Z,3.30
2022-12-25T01:28:16.569Z,3.10
2022-12-25T01:30:49.023Z,3.00
2022-12-25T01:33:16.485Z,2.97
2022-12-25T01:35:45.315Z,2.92
2022-12-25T01:38:12.818Z,3.20
2022-12-25T01:40:40.382Z,3.00
2022-12-25T01:43:21.222Z,3.20
2022-12-25T01:45:49.342Z,3.30
2022-12-25T01:48:20.802Z,3.17
2022-12-25T01:50:54.614Z,2.92
2022-12-25T01:53:22.781Z,2.75
2022-12-25T01:55:54.740Z,2.88
2022-12-25T01:58:22.448Z,3.10
2022-12-25T02:00:52.154Z,2.85
2022-12-25T02:03:20.851Z,3.05
2022-12-25T02:05:51.385Z,3.63
2022-12-25T02:08:21.434Z,2.72
2022-12-25T02:10:49.092Z,3.10
2022-12-25T02:13:20.223Z,2.70
2022-12-25T02:15:56.456Z,2.97
2022-12-25T02:18:34.934Z,3.13
2022-12-25T02:21:31.062Z,2.90
2022-12-25T02:27:17.051Z,3.10
2022-12-25T02:29:50.432Z,3.28
2022-12-25T02:32:25.301Z,2.70
2022-12-25T02:34:59.417Z,3.20
2022-12-25T02:37:32.828Z,3.00
2022-12-25T02:40:06.697Z,3.00
2022-12-25T02:42:55.521Z,3.88
2022-12-25T02:45:47.169Z,2.75
2022-12-25T02:48:34.415Z,2.90
2022-12-25T02:51:23.768Z,3.03
2022-12-25T02:54:11.563Z,2.90
2022-12-25T02:56:58.795Z,3.67
2022-12-25T02:59:46.817Z,2.92
2022-12-25T03:02:34.803Z,2.97
2022-12-25T03:05:23.097Z,2.90
2022-12-25T03:07:51.198Z,2.88
2022-12-25T03:10:39.717Z,3.20
2022-12-25T03:13:13.546Z,2.88
2022-12-25T03:15:58.267Z,2.92
2022-12-25T03:18:29.738Z,2.88
2022-12-25T03:21:14.818Z,2.80
2022-12-25T03:24:18.175Z,3.40
2022-12-25T03:26:58.386Z,3.03
2022-12-25T03:29:46.965Z,2.30
2022-12-25T03:32:27.224Z,2.65
2022-12-25T03:35:25.526Z,2.70
2022-12-25T03:38:32.732Z,2.83
2022-12-25T03:41:29.756Z,2.60
2022-12-25T03:44:37.192Z,2.50
2022-12-25T03:47:31.324Z,2.95
2022-12-25T03:50:23.318Z,2.78
2022-12-25T03:53:09.660Z,3.13
2022-12-25T03:55:54.606Z,3.15
2022-12-25T03:58:42.106Z,3.05
2022-12-25T04:01:28.177Z,3.00
2022-12-25T04:04:13.657Z,2.80
2022-12-25T04:06:59.406Z,2.85
2022-12-25T04:12:29.572Z,3.45
2022-12-25T04:15:14.985Z,2.90
2022-12-25T04:18:02.409Z,3.78
2022-12-25T04:20:47.786Z,2.55
2022-12-25T04:23:34.377Z,3.13
2022-12-25T04:26:22.063Z,3.10
2022-12-25T04:29:07.420Z,3.00
2022-12-25T04:31:52.657Z,3.33
2022-12-25T04:34:43.146Z,2.85
2022-12-25T04:37:10.712Z,3.63
2022-12-25T04:39:39.580Z,3.13
2022-12-25T04:42:07.044Z,3.10
2022-12-25T04:44:35.236Z,2.88
2022-12-25T04:47:07.567Z,3.20
2022-12-25T04:49:38.527Z,3.30
2022-12-25T04:52:06.285Z,3.00
2022-12-25T04:54:33.859Z,3.38
2022-12-25T04:57:02.676Z,3.25
2022-12-25T04:59:30.225Z,3.03
2022-12-25T05:01:57.811Z,3.78
2022-12-25T05:04:25.414Z,3.38
2022-12-25T05:06:52.915Z,3.20
2022-12-25T05:09:20.753Z,3.03
2022-12-25T05:11:48.269Z,3.00
2022-12-25T05:14:17.649Z,3.70
2022-12-25T05:16:45.448Z,2.80
2022-12-25T05:19:13.275Z,3.20
2022-12-25T05:21:40.767Z,3.60
2022-12-25T05:24:08.433Z,3.40
2022-12-25T05:26:35.923Z,2.92
2022-12-25T05:29:03.417Z,3.42
2022-12-25T05:31:32.407Z,3.10
2022-12-25T05:33:59.968Z,3.25
2022-12-25T05:36:27.732Z,3.75
2022-12-25T05:38:55.454Z,3.53
2022-12-25T05:41:22.938Z,3.90
2022-12-25T05:43:53.273Z,3.13
2022-12-25T05:46:20.824Z,3.28
2022-12-25T05:48:49.666Z,3.03
2022-12-25T05:51:17.156Z,3.42
2022-12-25T05:53:45.537Z,3.20
2022-12-25T05:56:13.436Z,2.80
2022-12-25T05:58:41.656Z,3.08
2022-12-25T06:01:14.049Z,2.75
2022-12-25T06:03:41.702Z,2.55
2022-12-25T06:06:10.996Z,2.80
2022-12-25T06:08:38.576Z,3.05
2022-12-25T06:11:07.477Z,2.88
2022-12-25T06:13:35.827Z,2.70
2022-12-25T06:16:04.825Z,2.80
2022-12-25T06:18:32.355Z,2.78
2022-12-25T06:20:59.916Z,2.83
2022-12-25T06:23:28.816Z,2.70
2022-12-25T06:25:56.350Z,3.10
2022-12-25T06:28:23.807Z,2.90
2022-12-25T06:30:51.303Z,2.63
2022-12-25T06:33:18.780Z,2.65
2022-12-25T06:35:47.830Z,3.38
2022-12-25T06:38:15.293Z,2.70
2022-12-25T06:40:44.106Z,2.88
2022-12-25T06:43:11.548Z,2.80
2022-12-25T06:45:39.113Z,2.95
2022-12-25T06:48:06.807Z,2.97
2022-12-25T06:50:34.331Z,2.92
2022-12-25T06:53:01.792Z,2.67
2022-12-25T06:55:29.264Z,2.95
2022-12-25T06:58:00.923Z,2.30
2022-12-25T07:00:30.829Z,2.65
2022-12-25T07:02:58.444Z,3.08
2022-12-25T07:05:26.043Z,2.33
2022-12-25T07:07:53.566Z,2.60
2022-12-25T07:10:21.025Z,2.47
2022-12-25T07:12:48.510Z,2.72
2022-12-25T07:15:17.811Z,2.33
2022-12-25T07:17:45.328Z,2.42
2022-12-25T07:20:12.831Z,2.90
2022-12-25T07:22:40.397Z,3.50
2022-12-25T07:25:08.543Z,3.08
2022-12-25T07:27:36.024Z,2.80
2022-12-25T07:30:03.609Z,2.22
2022-12-25T07:32:32.877Z,2.83
2022-12-25T07:35:00.352Z,2.90
2022-12-25T07:37:27.830Z,2.40
2022-12-25T07:39:55.372Z,3.05
2022-12-25T07:42:25.277Z,3.00
2022-12-25T07:44:53.042Z,2.70
2022-12-25T07:47:20.514Z,2.67
2022-12-25T07:49:49.320Z,2.60
2022-12-25T07:52:16.799Z,2.85
2022-12-25T07:54:44.336Z,2.80
2022-12-25T07:57:11.788Z,2.97
2022-12-25T07:59:39.243Z,2.60
2022-12-25T08:02:07.059Z,2.85
2022-12-25T08:04:34.861Z,2.90
2022-12-25T08:07:03.667Z,3.13
2022-12-25T08:09:31.113Z,2.55
2022-12-25T08:11:58.600Z,3.22
2022-12-25T08:14:26.122Z,2.65
2022-12-25T08:16:53.658Z,2.58
2022-12-25T08:19:21.213Z,2.80
2022-12-25T08:21:48.662Z,3.30
2022-12-25T08:24:17.545Z,2.80
2022-12-25T08:26:45.020Z,3.05
2022-12-25T08:29:12.535Z,3.00
2022-12-25T08:31:46.077Z,3.25
2022-12-25T08:34:14.691Z,3.58
2022-12-25T08:36:42.386Z,3.08
2022-12-25T08:39:09.895Z,4.07
2022-12-25T08:41:38.791Z,2.95
2022-12-25T08:44:07.452Z,3.30
2022-12-25T08:46:35.284Z,3.35
2022-12-25T08:49:02.847Z,3.38
2022-12-25T08:51:30.332Z,3.17
2022-12-25T08:54:01.386Z,3.30
2022-12-25T08:56:29.291Z,3.88
2022-12-25T08:58:58.182Z,3.35
2022-12-25T09:01:25.738Z,3.75
2022-12-25T09:03:53.378Z,3.13
2022-12-25T09:06:20.864Z,3.05
2022-12-25T09:08:49.818Z,4.30
2022-12-25T09:11:18.775Z,11.38
2022-12-25T09:13:46.385Z,3.95
2022-12-25T09:16:17.784Z,3.75
2022-12-25T09:18:45.561Z,3.83
2022-12-25T09:21:15.602Z,3.42
2022-12-25T09:23:43.559Z,3.15
2022-12-25T09:26:14.487Z,3.25
2022-12-25T09:28:48.442Z,3.10
2022-12-25T09:31:19.757Z,3.45
2022-12-25T09:33:47.492Z,3.50
2022-12-25T09:36:14.989Z,3.50
2022-12-25T09:38:42.446Z,2.80
2022-12-25T09:41:18.258Z,3.15
2022-12-25T09:43:50.938Z,3.17
2022-12-25T09:46:22.784Z,3.30
2022-12-25T09:49:00.125Z,2.90
2022-12-25T09:51:30.653Z,2.80
2022-12-25T09:54:01.616Z,3.22
2022-12-25T09:56:29.130Z,3.00
2022-12-25T09:58:56.640Z,3.20
2022-12-25T10:01:34.964Z,3.10
2022-12-25T10:04:22.984Z,3.03
2022-12-25T10:07:00.810Z,3.25
2022-12-25T10:09:46.288Z,3.17
2022-12-25T10:12:31.230Z,3.90
2022-12-25T10:15:11.409Z,3.50
2022-12-25T10:17:58.596Z,3.75
2022-12-25T10:20:39.886Z,4.45
2022-12-25T10:23:15.289Z,4.82
2022-12-25T10:25:44.372Z,4.15
2022-12-25T10:28:15.363Z,4.00
2022-12-25T10:30:45.079Z,3.78
2022-12-25T10:33:17.375Z,3.40
2022-12-25T10:35:45.636Z,3.38
2022-12-25T10:38:15.810Z,3.40
2022-12-25T10:40:55.857Z,3.03
2022-12-25T10:43:29.379Z,3.08
2022-12-25T10:45:56.954Z,3.22
2022-12-25T10:48:28.988Z,2.78
2022-12-25T10:50:57.077Z,3.45
2022-12-25T10:53:26.544Z,6.10
2022-12-25T10:55:57.183Z,3.92
2022-12-25T10:58:24.690Z,3.55
2022-12-25T11:00:54.458Z,3.05
2022-12-25T11:03:25.660Z,2.63
2022-12-25T11:05:55.162Z,2.97
2022-12-25T11:08:24.527Z,3.03
2022-12-25T11:10:57.886Z,3.47
2022-12-25T11:13:27.953Z,2.78
2022-12-25T11:16:09.378Z,2.80
2022-12-25T11:18:46.881Z,2.10
2022-12-25T11:21:18.987Z,2.50
2022-12-25T11:23:48.357Z,2.28
2022-12-25T11:26:17.562Z,2.67
2022-12-25T11:28:46.263Z,2.45
2022-12-25T11:31:16.279Z,2.67
2022-12-25T11:33:52.620Z,2.28
2022-12-25T11:36:29.521Z,2.70
2022-12-25T11:38:58.234Z,3.55
2022-12-25T11:41:33.209Z,2.78
2022-12-25T11:44:05.112Z,3.25
2022-12-25T11:46:41.228Z,3.33
2022-12-25T11:49:15.516Z,2.60
2022-12-25T11:51:48.311Z,3.08
2022-12-25T11:54:21.053Z,2.70
2022-12-25T11:56:49.737Z,2.30
2022-12-25T11:59:24.001Z,2.80
2022-12-25T12:01:55.805Z,2.53
2022-12-25T12:04:31.754Z,2.65
2022-12-25T12:07:07.006Z,2.83
2022-12-25T12:09:45.033Z,2.35
2022-12-25T12:12:18.976Z,2.47
2022-12-25T12:14:54.300Z,2.05
2022-12-25T12:19:49.362Z,3.40
2022-12-25T12:22:22.214Z,2.70
2022-12-25T12:24:56.638Z,2.38
2022-12-25T12:27:28.307Z,2.17
2022-12-25T12:29:58.783Z,2.10
2022-12-25T12:32:37.991Z,2.05
2022-12-25T12:35:16.595Z,2.72
2022-12-25T12:37:47.537Z,2.28
2022-12-25T12:40:29.692Z,2.50
2022-12-25T12:42:57.661Z,2.63
2022-12-25T12:45:27.583Z,2.35
2022-12-25T12:47:55.231Z,4.10
2022-12-25T12:50:35.306Z,2.60
2022-12-25T12:53:27.388Z,2.85
2022-12-25T12:55:55.339Z,2.92
2022-12-25T12:58:32.939Z,2.65
2022-12-25T13:01:20.004Z,3.03
2022-12-25T13:04:09.975Z,3.13
2022-12-25T13:06:44.411Z,3.33
2022-12-25T13:09:32.432Z,3.50
2022-12-25T13:12:00.501Z,3.38
2022-12-25T13:14:28.381Z,6.50
2022-12-25T13:16:55.932Z,4.07
2022-12-25T13:19:25.889Z,4.15
2022-12-25T13:21:55.561Z,4.03
2022-12-25T13:24:26.607Z,4.32
2022-12-25T13:26:54.535Z,4.38
2022-12-25T13:29:30.931Z,4.07
2022-12-25T13:31:59.509Z,3.60
2022-12-25T13:34:31.136Z,4.10
2022-12-25T13:36:59.474Z,3.97
2022-12-25T13:39:29.374Z,3.78
2022-12-25T13:42:10.304Z,4.03
2022-12-25T13:44:44.850Z,4.05
2022-12-25T13:47:21.812Z,4.20
2022-12-25T13:49:50.548Z,4.20
2022-12-25T13:52:21.555Z,4.47
2022-12-25T13:54:55.847Z,4.18
2022-12-25T13:57:27.008Z,4.30
2022-12-25T13:59:54.841Z,4.60
2022-12-25T14:02:27.947Z,5.93
2022-12-25T14:04:55.756Z,5.00
2022-12-25T14:07:24.904Z,5.05
2022-12-25T14:09:58.324Z,5.07
2022-12-25T14:12:26.885Z,4.22
2022-12-25T14:14:55.692Z,4.60
2022-12-25T14:17:23.970Z,4.75
2022-12-25T14:20:04.095Z,4.93
2022-12-25T14:22:35.927Z,4.93
2022-12-25T14:25:15.674Z,4.78
2022-12-25T14:27:49.881Z,5.03
2022-12-25T14:30:18.240Z,7.15
2022-12-25T14:32:50.752Z,7.13
2022-12-25T14:35:23.339Z,5.10
2022-12-25T14:37:56.848Z,5.55
2022-12-25T14:40:30.284Z,5.90
2022-12-25T14:42:59.194Z,5.63
2022-12-25T14:45:30.036Z,5.03
2022-12-25T14:47:59.869Z,5.13
2022-12-25T14:50:30.300Z,5.43
2022-12-25T14:52:59.514Z,5.65
2022-12-25T14:55:30.427Z,4.90
2022-12-25T14:57:59.702Z,5.35
2022-12-25T15:00:31.610Z,6.10
2022-12-25T15:03:00.919Z,5.80
2022-12-25T15:05:34.594Z,5.25
2022-12-25T15:08:18.634Z,5.22
2022-12-25T15:11:04.230Z,5.93
2022-12-25T15:13:32.437Z,4.93
2022-12-25T15:16:06.649Z,5.22
2022-12-25T15:18:38.484Z,5.70
2022-12-25T15:21:06.854Z,5.43
2022-12-25T15:23:34.319Z,5.50
2022-12-25T15:26:03.174Z,5.55
2022-12-25T15:28:30.658Z,5.35
2022-12-25T15:30:58.203Z,5.40
2022-12-25T15:33:25.717Z,5.95
2022-12-25T15:35:53.163Z,5.75
2022-12-25T15:38:20.764Z,6.97
2022-12-25T15:40:48.370Z,5.63
2022-12-25T15:46:05.261Z,5.35
2022-12-25T15:48:32.753Z,5.30
2022-12-25T15:51:00.248Z,5.35
2022-12-25T15:53:27.747Z,5.45
2022-12-25T15:55:55.687Z,5.97
2022-12-25T15:58:24.552Z,5.40
2022-12-25T16:00:52.437Z,5.32
2022-12-25T16:03:19.949Z,9.23
2022-12-25T16:05:47.493Z,15.35
2022-12-25T16:08:14.964Z,5.78
2022-12-25T16:10:42.471Z,5.93
2022-12-25T16:13:09.974Z,5.43
2022-12-25T16:15:38.859Z,5.25
2022-12-25T16:18:06.584Z,5.60
2022-12-25T16:20:36.003Z,5.55
2022-12-25T16:23:03.512Z,5.55
2022-12-25T16:25:31.085Z,5.63
2022-12-25T16:27:58.619Z,5.25
2022-12-25T16:30:26.193Z,5.10
2022-12-25T16:32:55.038Z,6.00
2022-12-25T16:35:22.502Z,5.38
2022-12-25T16:37:49.959Z,5.20
2022-12-25T16:40:17.948Z,5.10
2022-12-25T16:42:45.429Z,5.55
2022-12-25T16:45:13.604Z,4.80
2022-12-25T16:47:41.125Z,5.13
2022-12-25T16:50:10.951Z,4.85
2022-12-25T16:52:38.443Z,5.30
2022-12-25T16:55:06.589Z,6.00
2022-12-25T16:57:34.798Z,5.72
2022-12-25T17:00:02.300Z,4.55
2022-12-25T17:02:30.211Z,4.60
2022-12-25T17:04:57.880Z,4.38
2022-12-25T17:07:26.781Z,4.47
2022-12-25T17:09:54.266Z,5.53
2022-12-25T17:12:21.742Z,5.10
2022-12-25T17:14:49.256Z,4.90
2022-12-25T17:17:16.804Z,4.85
2022-12-25T17:19:44.524Z,4.93
2022-12-25T17:22:12.051Z,5.05
2022-12-25T17:24:41.441Z,4.75
2022-12-25T17:27:09.745Z,5.07
2022-12-25T17:29:38.932Z,4.90
2022-12-25T17:32:07.241Z,5.28
2022-12-25T17:34:35.049Z,4.72
2022-12-25T17:37:02.518Z,5.25
2022-12-25T17:39:30.068Z,4.50
2022-12-25T17:41:58.896Z,6.32
2022-12-25T17:44:27.193Z,5.25
2022-12-25T17:46:54.718Z,5.55
2022-12-25T17:49:23.184Z,6.72
2022-12-25T17:51:50.728Z,5.93
2022-12-25T17:54:18.275Z,6.05
2022-12-25T17:56:45.782Z,5.30
2022-12-25T17:59:18.272Z,5.15
2022-12-25T18:01:48.007Z,5.50
2022-12-25T18:04:15.763Z,4.78
2022-12-25T18:06:43.545Z,5.03
2022-12-25T18:09:11.133Z,5.18
2022-12-25T18:11:40.770Z,5.28
2022-12-25T18:14:09.960Z,5.10
2022-12-25T18:16:42.031Z,5.75
2022-12-25T18:19:10.122Z,4.82
2022-12-25T18:21:38.295Z,5.22
2022-12-25T18:24:07.717Z,4.60
2022-12-25T18:26:35.372Z,4.93
2022-12-25T18:29:03.155Z,5.15
2022-12-25T18:31:31.903Z,5.00
2022-12-25T18:34:01.592Z,5.30
2022-12-25T18:36:30.730Z,4.78
2022-12-25T18:38:59.087Z,4.80
2022-12-25T18:41:27.931Z,4.50
2022-12-25T18:43:56.177Z,5.10
2022-12-25T18:46:25.670Z,5.03
2022-12-25T18:48:53.652Z,5.25
2022-12-25T18:51:22.834Z,4.88
2022-12-25T18:53:50.887Z,4.22
2022-12-25T18:56:18.919Z,4.95
2022-12-25T18:58:47.281Z,5.10
2022-12-25T19:01:17.568Z,5.32
2022-12-25T19:03:46.004Z,8.02
2022-12-25T19:06:18.655Z,4.93
2022-12-25T19:08:47.666Z,4.55
2022-12-25T19:11:15.466Z,5.20
2022-12-25T19:13:43.534Z,4.85
2022-12-25T19:16:11.393Z,4.53
2022-12-25T19:18:39.379Z,4.93
2022-12-25T19:21:09.553Z,5.25
2022-12-25T19:23:38.337Z,4.97
2022-12-25T19:26:09.116Z,5.15
2022-12-25T19:28:36.895Z,4.38
2022-12-25T19:31:07.278Z,5.22
2022-12-25T19:33:36.491Z,4.88
2022-12-25T19:36:05.884Z,5.10
2022-12-25T19:38:33.426Z,5.35
2022-12-25T19:41:05.666Z,5.07
2022-12-25T19:43:36.902Z,5.00
2022-12-25T19:46:05.367Z,5.43
2022-12-25T19:48:33.987Z,4.93
2022-12-25T19:51:02.108Z,5.07
2022-12-25T19:53:30.574Z,5.15
2022-12-25T19:56:02.715Z,5.22
2022-12-25T19:58:30.645Z,5.05
2022-12-25T20:01:00.871Z,5.28
2022-12-25T20:03:28.467Z,5.22
2022-12-25T20:05:56.499Z,4.93
2022-12-25T20:08:24.961Z,4.88
2022-12-25T20:10:52.826Z,5.07
2022-12-25T20:13:20.503Z,5.20
2022-12-25T20:15:48.742Z,5.45
2022-12-25T20:18:18.312Z,5.45
2022-12-25T20:20:46.208Z,5.10
2022-12-25T20:23:13.683Z,5.45
2022-12-25T20:25:42.135Z,5.65
2022-12-25T20:28:10.225Z,5.75
2022-12-25T20:30:39.554Z,5.18
2022-12-25T20:33:07.089Z,5.63
2022-12-25T20:35:35.867Z,6.25
2022-12-25T20:38:03.408Z,7.55
2022-12-25T20:40:32.440Z,6.10
2022-12-25T20:43:09.094Z,5.57
2022-12-25T20:45:40.974Z,5.80
2022-12-25T20:48:08.513Z,5.80
2022-12-25T20:50:37.306Z,4.95
2022-12-25T20:53:04.783Z,5.20
2022-12-25T20:55:32.292Z,5.03
2022-12-25T20:57:59.794Z,5.05
2022-12-25T21:00:27.569Z,5.13
2022-12-25T21:02:55.190Z,5.50
2022-12-25T21:05:22.788Z,5.53
2022-12-25T21:07:51.624Z,5.70
2022-12-25T21:10:19.413Z,5.63
2022-12-25T21:12:46.931Z,5.20
2022-12-25T21:15:15.838Z,5.35
2022-12-25T21:17:43.531Z,5.45
2022-12-25T21:20:11.871Z,5.45
2022-12-25T21:22:39.349Z,5.82
2022-12-25T21:25:08.779Z,6.05
2022-12-25T21:27:36.218Z,5.40
2022-12-25T21:30:14.435Z,5.18
2022-12-25T21:33:00.956Z,5.47
2022-12-25T21:35:28.504Z,6.03
2022-12-25T21:37:55.969Z,5.45
2022-12-25T21:40:24.775Z,5.57
2022-12-25T21:42:53.019Z,5.63
2022-12-25T21:45:20.521Z,5.82
2022-12-25T21:48:00.313Z,5.93
2022-12-25T21:50:48.490Z,5.53
2022-12-25T21:53:16.721Z,6.55
2022-12-25T21:55:56.264Z,5.47
2022-12-25T21:58:23.891Z,6.28
2022-12-25T22:00:51.431Z,6.15
2022-12-25T22:03:19.132Z,6.00
2022-12-25T22:06:04.692Z,5.70
2022-12-25T22:08:32.208Z,6.38
2022-12-25T22:11:03.754Z,5.88
2022-12-25T22:13:48.807Z,5.90
2022-12-25T22:16:33.846Z,6.65
2022-12-25T22:19:18.911Z,5.32
2022-12-25T22:21:46.474Z,5.47
2022-12-25T22:24:14.320Z,4.97
2022-12-25T22:26:44.469Z,4.70
2022-12-25T22:29:11.971Z,5.55
2022-12-25T22:31:46.390Z,4.43
2022-12-25T22:34:15.995Z,4.70
2022-12-25T22:36:43.636Z,4.30
2022-12-25T22:39:11.169Z,4.65
2022-12-25T22:41:38.667Z,4.45
2022-12-25T22:44:23.166Z,3.88
2022-12-25T22:46:50.991Z,3.92
2022-12-25T22:49:18.750Z,3.75
2022-12-25T22:51:47.268Z,3.25
2022-12-25T22:54:16.169Z,3.25
2022-12-25T22:56:45.478Z,3.38
2022-12-25T22:59:15.717Z,3.42
2022-12-25T23:01:43.471Z,2.70
2022-12-25T23:04:12.369Z,2.40
2022-12-25T23:06:40.582Z,2.75
2022-12-25T23:09:09.983Z,2.70
2022-12-25T23:11:37.477Z,2.70
2022-12-25T23:14:24.272Z,2.55
2022-12-25T23:16:53.113Z,2.75
2022-12-25T23:19:38.504Z,2.90
2022-12-25T23:22:23.837Z,2.80
2022-12-25T23:25:08.028Z,2.92
2022-12-25T23:27:35.484Z,2.90
2022-12-25T23:30:02.045Z,2.53
2022-12-25T23:32:30.888Z,2.83
2022-12-25T23:34:58.341Z,2.90
2022-12-25T23:37:25.853Z,3.35
2022-12-25T23:39:54.595Z,3.63
2022-12-25T23:42:22.254Z,3.72
2022-12-25T23:44:49.929Z,3.90
2022-12-25T23:47:17.463Z,4.22
2022-12-25T23:49:46.267Z,4.40
2022-12-25T23:52:13.888Z,4.22
2022-12-25T23:54:41.482Z,4.63
2022-12-25T23:57:08.976Z,5.18
2022-12-25T23:59:36.518Z,6.82
